Time;durP1;ratioP1;P1;durP2;ratioP2;P2;SDS_P1;SDS_P2;PMS_P1;PMS_P2;Temp;Humidity;BMP_temperature;BMP_pressure;BME280_temperature;BME280_humidity;BME280_pressure;Samples;Min_cycle;Max_cycle;Signal;HPM_P1;HPM_P2
2021/07/15 00:00:00;;;;;;;0.00;0.00;;;;;;;24.06;66.18;98825.03;5012534;28;20034;-76
2021/07/15 00:02:26;;;;;;;0.25;0.25;;;;;;;24.04;66.11;98821.88;5013144;28;20026;-76
2021/07/15 00:04:51;;;;;;;0.00;0.00;;;;;;;24.07;66.12;98821.16;5013728;28;20026;-76
2021/07/15 00:07:17;;;;;;;0.00;0.00;;;;;;;24.11;66.07;98826.66;5012049;28;20029;-76
2021/07/15 00:09:43;;;;;;;0.00;0.00;;;;;;;24.09;66.48;98829.72;5013563;28;20034;-76
2021/07/15 00:12:12;;;;;;;0.10;0.10;;;;;;;24.06;66.61;98826.97;5012256;28;20030;-77
2021/07/15 00:14:38;;;;;;;0.00;0.00;;;;;;;23.99;66.73;98830.41;5012206;28;20022;-77
2021/07/15 00:17:04;;;;;;;0.00;0.00;;;;;;;23.88;66.93;98824.00;5013823;28;20484;-78
2021/07/15 00:19:30;;;;;;;0.08;0.08;;;;;;;23.78;67.10;98820.75;5013017;28;20047;-79
2021/07/15 00:21:57;;;;;;;0.10;0.10;;;;;;;23.70;67.76;98821.81;5013690;28;20026;-78
2021/07/15 00:24:24;;;;;;;0.15;0.15;;;;;;;23.63;68.03;98829.91;5013497;28;20069;-78
2021/07/15 00:26:50;;;;;;;0.63;0.30;;;;;;;23.58;68.07;98828.31;5013524;28;20066;-77
2021/07/15 00:29:16;;;;;;;1.83;0.43;;;;;;;23.58;68.21;98820.13;5012916;28;20053;-77
2021/07/15 00:31:41;;;;;;;0.35;0.30;;;;;;;23.60;68.02;98820.50;5012721;28;20034;-77
2021/07/15 00:34:07;;;;;;;0.00;0.00;;;;;;;23.63;68.24;98824.44;5012758;28;20022;-77
2021/07/15 00:36:32;;;;;;;0.00;0.00;;;;;;;23.60;68.21;98828.69;5012454;28;20101;-77
2021/07/15 00:38:58;;;;;;;0.15;0.15;;;;;;;23.63;68.23;98827.16;5011914;28;20084;-77
2021/07/15 00:41:23;;;;;;;0.10;0.10;;;;;;;23.60;68.36;98825.19;5011345;28;20034;-77
2021/07/15 00:43:49;;;;;;;0.20;0.20;;;;;;;23.61;68.33;98827.53;5013166;28;20045;-77
2021/07/15 00:46:15;;;;;;;0.08;0.08;;;;;;;23.62;68.43;98820.13;5012335;28;20478;-77
2021/07/15 00:48:41;;;;;;;0.10;0.10;;;;;;;23.63;68.27;98825.25;5012581;28;20026;-77
2021/07/15 00:51:07;;;;;;;0.00;0.00;;;;;;;23.70;68.19;98832.72;5012276;28;20056;-77
2021/07/15 00:53:34;;;;;;;0.00;0.00;;;;;;;23.73;67.71;98832.00;5012446;28;20065;-77
2021/07/15 00:56:00;;;;;;;0.10;0.10;;;;;;;23.77;67.91;98823.84;5012747;28;20029;-77
2021/07/15 00:58:26;;;;;;;0.10;0.10;;;;;;;23.79;67.51;98827.78;5012156;28;20520;-77
2021/07/15 01:00:52;;;;;;;0.00;0.00;;;;;;;23.76;68.13;98820.31;5012677;28;20168;-77
2021/07/15 01:03:20;;;;;;;0.10;0.10;;;;;;;23.67;68.41;98811.66;5011085;28;20477;-78
2021/07/15 01:05:52;;;;;;;6.43;0.28;;;;;;;23.62;68.63;98817.41;5012587;28;20116;-77
2021/07/15 01:08:18;;;;;;;0.20;0.20;;;;;;;23.59;68.48;98815.44;5012112;28;20034;-77
2021/07/15 01:10:50;;;;;;;0.10;0.10;;;;;;;23.55;68.63;98822.78;5012279;28;20518;-77
2021/07/15 01:13:15;;;;;;;0.50;0.50;;;;;;;23.56;68.73;98824.34;5012062;28;20029;-77
2021/07/15 01:15:56;;;;;;;0.10;0.10;;;;;;;23.54;68.73;98816.53;5011199;28;20030;-77
2021/07/15 01:18:33;;;;;;;0.00;0.00;;;;;;;23.57;68.68;98821.25;5011974;28;20026;-77
2021/07/15 01:21:15;;;;;;;0.52;0.52;;;;;;;23.57;67.68;98806.81;5012378;28;20120;-77
2021/07/15 01:23:59;;;;;;;0.00;0.00;;;;;;;23.58;65.45;98811.13;5011886;28;20018;-76
2021/07/15 01:26:42;;;;;;;0.10;0.10;;;;;;;23.55;64.16;98803.69;5011807;28;20034;-77
2021/07/15 01:29:32;;;;;;;0.00;0.00;;;;;;;23.52;63.71;98797.00;5012287;28;20389;-77
2021/07/15 01:32:03;;;;;;;0.00;0.00;;;;;;;23.55;63.30;98817.34;5012277;28;20026;-77
2021/07/15 01:34:30;;;;;;;0.03;0.03;;;;;;;23.53;63.18;98814.19;5012071;28;20047;-77
2021/07/15 01:36:56;;;;;;;0.13;0.13;;;;;;;23.50;62.83;98811.03;5012143;28;20026;-77
2021/07/15 01:39:32;;;;;;;0.00;0.00;;;;;;;23.44;62.92;98807.03;5011627;28;20036;-77
2021/07/15 01:42:05;;;;;;;0.10;0.10;;;;;;;23.36;62.64;98805.34;5011573;28;20105;-77
2021/07/15 01:44:31;;;;;;;0.00;0.00;;;;;;;23.37;62.51;98812.38;5011595;28;20477;-77
2021/07/15 01:46:57;;;;;;;0.00;0.00;;;;;;;23.32;62.48;98818.16;5011806;28;20030;-77
2021/07/15 01:49:24;;;;;;;0.47;0.20;;;;;;;23.29;62.43;98818.88;5011591;28;20065;-77
2021/07/15 01:51:53;;;;;;;0.00;0.00;;;;;;;23.26;62.25;98827.81;5012259;28;20648;-77
2021/07/15 01:54:19;;;;;;;;;;;;;;;23.25;62.12;98824.28;5012171;28;20030;-77
2021/07/15 01:56:46;;;;;;;0.10;0.10;;;;;;;23.16;62.05;98821.81;5011706;28;19925;-77
2021/07/15 01:59:15;;;;;;;0.10;0.10;;;;;;;23.07;62.06;98821.28;5011469;28;20026;-77
2021/07/15 02:01:43;;;;;;;0.10;0.10;;;;;;;23.03;62.25;98818.50;5011470;28;20030;-77
2021/07/15 02:04:11;;;;;;;0.10;0.10;;;;;;;22.98;62.53;98816.06;5011312;28;20026;-77
2021/07/15 02:06:41;;;;;;;0.10;0.10;;;;;;;22.93;63.08;98815.59;5011439;28;20477;-77
2021/07/15 02:09:09;;;;;;;0.10;0.10;;;;;;;22.90;63.64;98821.75;5011435;28;20030;-77
2021/07/15 02:11:36;;;;;;;0.15;0.15;;;;;;;22.85;63.84;98825.56;5011512;28;20413;-77
2021/07/15 02:14:07;;;;;;;0.10;0.10;;;;;;;22.82;64.16;98818.13;5011890;28;20029;-77
2021/07/15 02:16:36;;;;;;;0.10;0.10;;;;;;;22.79;64.22;98816.94;5011513;28;20121;-76
2021/07/15 02:19:04;;;;;;;0.10;0.10;;;;;;;22.76;64.45;98825.03;5010187;28;20448;-76
2021/07/15 02:21:32;;;;;;;0.10;0.10;;;;;;;22.76;64.55;98825.03;5011001;28;20041;-76
2021/07/15 02:24:00;;;;;;;0.08;0.08;;;;;;;22.67;64.72;98820.63;5011135;28;20042;-77
2021/07/15 02:26:27;;;;;;;0.10;0.10;;;;;;;22.64;64.69;98812.38;5011102;28;20033;-77
2021/07/15 02:28:54;;;;;;;0.10;0.10;;;;;;;22.62;65.01;98820.91;5010974;28;20513;-77
2021/07/15 02:31:29;;;;;;;0.00;0.00;;;;;;;22.61;65.31;98821.28;5010932;28;20036;-77
2021/07/15 02:33:58;;;;;;;0.10;0.10;;;;;;;22.58;65.27;98816.56;5011312;28;20506;-77
2021/07/15 02:36:28;;;;;;;0.10;0.10;;;;;;;22.55;65.37;98812.63;5011052;28;20026;-77
2021/07/15 02:38:56;;;;;;;0.10;0.10;;;;;;;22.58;64.99;98814.59;5010743;28;20030;-78
2021/07/15 02:41:21;;;;;;;;;;;;;;;22.59;64.38;98818.13;5011237;28;20481;-76
2021/07/15 02:43:50;;;;;;;0.13;0.10;;;;;;;22.55;64.41;98818.84;5011196;28;19960;-76
2021/07/15 02:46:16;;;;;;;0.00;0.00;;;;;;;22.55;64.26;98818.84;5011115;28;20057;-76
2021/07/15 02:48:41;;;;;;;0.00;0.00;;;;;;;22.53;64.49;98806.72;5010761;28;20060;-76
2021/07/15 02:51:07;;;;;;;0.00;0.00;;;;;;;22.51;64.61;98801.66;5010625;28;20080;-76
2021/07/15 02:53:33;;;;;;;0.00;0.00;;;;;;;22.49;64.72;98808.63;5011150;28;20033;-76
2021/07/15 02:56:23;;;;;;;0.00;0.00;;;;;;;22.46;64.95;98810.13;5011048;28;20034;-76
2021/07/15 02:59:05;;;;;;;0.00;0.00;;;;;;;22.40;64.84;98803.41;5011223;28;20565;-75
2021/07/15 03:01:42;;;;;;;0.00;0.00;;;;;;;22.38;64.95;98811.91;5010880;28;20064;-79
2021/07/15 03:04:20;;;;;;;0.00;0.00;;;;;;;22.38;64.96;98813.88;5014836;28;20054;-76
2021/07/15 03:06:45;;;;;;;0.00;0.00;;;;;;;22.39;65.30;98810.00;5014612;28;20408;-76
2021/07/15 03:09:14;;;;;;;0.00;0.00;;;;;;;22.39;65.14;98815.44;5014713;28;20030;-76
2021/07/15 03:11:49;;;;;;;0.10;0.10;;;;;;;22.42;64.64;98817.44;5014277;28;20034;-75
2021/07/15 03:14:15;;;;;;;0.00;0.00;;;;;;;22.47;64.50;98813.63;5014393;28;20022;-77
2021/07/15 03:16:44;;;;;;;0.10;0.10;;;;;;;22.53;64.20;98814.91;5014153;28;20041;-76
2021/07/15 03:19:11;;;;;;;0.10;0.10;;;;;;;22.65;63.63;98811.22;5014271;28;20083;-76
2021/07/15 03:21:42;;;;;;;0.00;0.00;;;;;;;22.78;63.28;98815.34;5014082;28;20041;-76
2021/07/15 03:24:10;;;;;;;0.10;0.10;;;;;;;22.91;62.81;98815.97;5013991;28;20054;-76
2021/07/15 03:26:36;;;;;;;0.00;0.00;;;;;;;23.02;62.59;98810.66;5014021;28;20083;-76
2021/07/15 03:29:04;;;;;;;0.10;0.10;;;;;;;23.16;62.26;98807.38;5014060;28;20508;-76
2021/07/15 03:31:30;;;;;;;0.00;0.00;;;;;;;23.35;61.62;98809.22;5012593;28;20378;-76
2021/07/15 03:33:57;;;;;;;0.00;0.00;;;;;;;23.43;61.29;98805.47;5014468;28;20029;-76
2021/07/15 03:36:22;;;;;;;0.00;0.00;;;;;;;23.51;60.98;98800.91;5013784;28;20041;-76
2021/07/15 03:38:49;;;;;;;0.00;0.00;;;;;;;23.57;60.90;98807.63;5045725;28;20029;-76
2021/07/15 03:41:15;;;;;;;0.00;0.00;;;;;;;23.60;60.81;98808.81;5014058;28;20033;-76
2021/07/15 03:43:42;;;;;;;0.00;0.00;;;;;;;23.59;60.73;98807.25;5013885;28;20030;-76
2021/07/15 03:46:09;;;;;;;0.10;0.10;;;;;;;23.59;60.66;98810.75;5012653;28;20347;-76
2021/07/15 03:48:37;;;;;;;0.13;0.13;;;;;;;23.58;60.69;98803.72;5013968;28;20026;-76
2021/07/15 03:51:07;;;;;;;0.28;0.28;;;;;;;23.58;60.77;98816.56;5013619;28;20419;-76
2021/07/15 03:53:33;;;;;;;0.00;0.00;;;;;;;23.53;60.96;98806.00;5013731;28;20065;-76
2021/07/15 03:56:00;;;;;;;0.10;0.10;;;;;;;23.52;61.22;98804.41;5013870;28;20531;-77
2021/07/15 03:58:26;;;;;;;0.00;0.00;;;;;;;23.53;61.29;98809.50;5013493;28;20025;-77
2021/07/15 04:00:58;;;;;;;0.00;0.00;;;;;;;23.59;61.29;98807.25;5013518;28;20083;-76
2021/07/15 04:03:24;;;;;;;0.10;0.10;;;;;;;23.66;61.19;98815.53;5013219;28;20029;-76
2021/07/15 04:05:52;;;;;;;0.00;0.00;;;;;;;23.70;61.48;98810.88;5013468;28;20061;-76
2021/07/15 04:08:23;;;;;;;0.00;0.00;;;;;;;23.78;61.58;98819.97;5013485;28;20091;-76
2021/07/15 04:10:51;;;;;;;0.00;0.00;;;;;;;23.92;61.39;98817.44;5013080;28;20041;-76
2021/07/15 04:13:18;;;;;;;0.00;0.00;;;;;;;24.11;60.70;98823.91;5013127;28;20022;-77
2021/07/15 04:16:00;;;;;;;0.00;0.00;;;;;;;24.41;60.25;98821.13;5012888;28;20472;-77
2021/07/15 04:18:34;;;;;;;0.00;0.00;;;;;;;24.77;59.19;98815.25;5013025;28;20481;-77
2021/07/15 04:21:00;;;;;;;0.00;0.00;;;;;;;25.15;58.10;98817.88;5013357;28;20034;-77
2021/07/15 04:23:27;;;;;;;0.35;0.35;;;;;;;25.54;57.33;98812.66;5012777;28;20079;-77
2021/07/15 04:25:53;;;;;;;0.00;0.00;;;;;;;26.03;56.28;98826.97;5013276;28;20053;-77
2021/07/15 04:28:20;;;;;;;0.00;0.00;;;;;;;26.47;54.88;98824.41;5013437;28;20026;-77
2021/07/15 04:30:48;;;;;;;0.00;0.00;;;;;;;26.99;54.01;98821.34;5012371;28;20037;-77
2021/07/15 04:33:15;;;;;;;0.00;0.00;;;;;;;27.52;52.25;98824.44;5013059;28;20413;-77
2021/07/15 04:35:41;;;;;;;0.00;0.00;;;;;;;28.05;51.17;98818.00;5012444;28;20462;-77
2021/07/15 04:38:07;;;;;;;0.00;0.00;;;;;;;28.58;49.64;98823.59;5012608;28;20065;-77
2021/07/15 04:40:34;;;;;;;0.08;0.08;;;;;;;29.08;48.81;98822.44;5012685;28;20477;-77
2021/07/15 04:43:09;;;;;;;0.00;0.00;;;;;;;29.62;47.49;98821.13;5012673;28;20501;-77
2021/07/15 04:45:38;;;;;;;0.00;0.00;;;;;;;30.13;45.92;98822.09;5012204;28;20046;-77
2021/07/15 04:48:04;;;;;;;0.00;0.00;;;;;;;30.61;44.80;98822.25;5012888;28;20563;-77
2021/07/15 04:50:32;;;;;;;0.00;0.00;;;;;;;31.05;44.10;98825.88;5012034;28;20026;-77
2021/07/15 04:53:09;;;;;;;0.00;0.00;;;;;;;31.53;43.02;98829.38;5012725;28;20512;-77
2021/07/15 04:55:36;;;;;;;0.10;0.10;;;;;;;31.94;42.39;98824.66;5012532;28;20030;-77
2021/07/15 04:58:03;;;;;;;0.00;0.00;;;;;;;32.32;41.37;98832.56;5012951;28;20764;-77
2021/07/15 05:00:30;;;;;;;0.00;0.00;;;;;;;32.67;40.79;98823.88;5012499;28;20065;-77
2021/07/15 05:03:01;;;;;;;0.00;0.00;;;;;;;32.94;40.35;98820.84;5012649;28;20398;-77
2021/07/15 05:05:27;;;;;;;0.00;0.00;;;;;;;33.29;39.86;98823.13;5012623;28;20565;-77
2021/07/15 05:07:52;;;;;;;0.00;0.00;;;;;;;33.58;39.37;98817.63;5011309;28;20028;-77
2021/07/15 05:10:18;;;;;;;1.02;0.43;;;;;;;33.91;38.76;98814.75;5011244;28;20022;-77
2021/07/15 05:12:43;;;;;;;0.00;0.00;;;;;;;34.21;38.41;98809.09;5011067;28;20116;-77
2021/07/15 05:15:11;;;;;;;0.00;0.00;;;;;;;34.54;38.02;98815.22;5012137;28;20084;-77
2021/07/15 05:17:37;;;;;;;0.55;0.30;;;;;;;34.69;37.75;98814.75;5011871;28;20109;-77
2021/07/15 05:20:22;;;;;;;0.00;0.00;;;;;;;34.94;37.60;98809.16;5011753;28;20125;-78
2021/07/15 05:22:47;;;;;;;0.10;0.10;;;;;;;35.12;37.29;98807.81;5011756;28;20133;-78
2021/07/15 05:25:13;;;;;;;0.00;0.00;;;;;;;35.33;37.47;98811.81;5011722;28;20049;-78
2021/07/15 05:27:38;;;;;;;0.45;0.45;;;;;;;35.49;37.12;98807.34;5011872;28;20026;-78
2021/07/15 05:30:08;;;;;;;0.00;0.00;;;;;;;35.68;36.67;98822.13;5012412;28;20029;-78
2021/07/15 05:32:34;;;;;;;0.00;0.00;;;;;;;35.85;36.58;98812.34;5012229;28;20120;-78
2021/07/15 05:34:59;;;;;;;0.00;0.00;;;;;;;36.04;36.11;98812.47;5012109;28;20113;-78
2021/07/15 05:37:25;;;;;;;0.10;0.10;;;;;;;36.22;35.83;98806.97;5011913;28;20018;-78
2021/07/15 05:39:51;;;;;;;0.10;0.10;;;;;;;36.41;35.77;98809.84;5043598;28;20036;-78
2021/07/15 05:42:16;;;;;;;0.00;0.00;;;;;;;36.49;35.67;98804.78;5011464;28;20029;-78
2021/07/15 05:44:42;;;;;;;0.10;0.10;;;;;;;36.67;35.50;98821.53;5043541;28;20279;-78
2021/07/15 05:47:07;;;;;;;0.00;0.00;;;;;;;36.79;35.09;98810.72;5011534;28;20114;-78
2021/07/15 05:49:37;;;;;;;0.15;0.13;;;;;;;36.51;35.71;98814.25;5011361;28;20041;-78
2021/07/15 05:52:04;;;;;;;0.03;0.03;;;;;;;36.65;35.46;98817.69;5011592;28;20030;-78
2021/07/15 05:54:30;;;;;;;0.25;0.25;;;;;;;36.77;35.32;98816.78;5011521;28;20030;-78
2021/07/15 05:56:56;;;;;;;0.50;0.20;;;;;;;36.87;34.89;98820.38;5011705;28;20099;-78
2021/07/15 05:59:21;;;;;;;0.00;0.00;;;;;;;36.99;34.95;98815.91;5011496;28;20030;-77
2021/07/15 06:01:46;;;;;;;0.17;0.17;;;;;;;37.07;34.78;98803.19;5011238;28;20057;-78
2021/07/15 06:04:12;;;;;;;0.08;0.08;;;;;;;37.03;34.53;98808.16;5011789;28;20057;-78
2021/07/15 06:06:37;;;;;;;0.40;0.25;;;;;;;36.85;35.11;98808.88;5009852;28;20539;-78
2021/07/15 06:09:03;;;;;;;0.30;0.20;;;;;;;36.97;34.76;98799.63;5011398;28;20026;-78
2021/07/15 06:11:29;;;;;;;0.20;0.20;;;;;;;36.99;34.79;98810.34;5011237;28;20030;-78
2021/07/15 06:13:54;;;;;;;0.05;0.05;;;;;;;37.20;34.50;98791.13;5011116;28;20079;-79
2021/07/15 06:16:20;;;;;;;0.30;0.30;;;;;;;37.28;34.10;98803.50;5011107;28;20064;-79
2021/07/15 06:18:46;;;;;;;0.98;0.35;;;;;;;37.12;32.25;98805.38;5010488;28;20477;-80
2021/07/15 06:21:11;;;;;;;0.30;0.30;;;;;;;36.69;32.16;98807.16;5011174;28;20026;-80
2021/07/15 06:23:37;;;;;;;0.70;0.70;;;;;;;36.25;33.22;98810.09;5010055;28;20040;-79
2021/07/15 06:26:03;;;;;;;0.20;0.20;;;;;;;35.72;33.94;98808.88;5011647;28;20046;-79
2021/07/15 06:28:28;;;;;;;0.63;0.22;;;;;;;35.30;34.90;98807.16;5011515;28;20022;-78
2021/07/15 06:30:54;;;;;;;1.30;0.55;;;;;;;34.90;35.92;98802.19;5011183;28;20022;-78
2021/07/15 06:33:19;;;;;;;1.05;1.00;;;;;;;34.39;36.32;98797.47;5011350;28;20478;-78
2021/07/15 06:35:49;;;;;;;0.20;0.20;;;;;;;34.13;36.93;98797.44;5010858;28;20099;-78
2021/07/15 06:38:15;;;;;;;0.10;0.10;;;;;;;33.87;37.53;98797.41;5014254;28;20034;-78
2021/07/15 06:40:45;;;;;;;0.80;0.80;;;;;;;33.70;37.92;98795.91;5014845;28;20037;-78
2021/07/15 06:43:11;;;;;;;0.30;0.30;;;;;;;33.43;36.97;98799.81;5015537;28;20026;-79
2021/07/15 06:45:36;;;;;;;2.03;0.98;;;;;;;33.09;37.71;98796.31;5013754;28;20051;-79
2021/07/15 06:48:02;;;;;;;0.28;0.28;;;;;;;32.79;39.01;98801.06;5015447;28;20480;-78
2021/07/15 06:50:27;;;;;;;0.10;0.10;;;;;;;32.61;39.61;98795.16;5015290;28;20030;-78
2021/07/15 06:52:52;;;;;;;1.58;1.35;;;;;;;32.45;40.61;98793.91;5013537;28;20036;-79
2021/07/15 06:55:18;;;;;;;0.50;0.50;;;;;;;32.19;40.84;98790.13;5014954;28;20033;-79
2021/07/15 06:57:44;;;;;;;0.45;0.45;;;;;;;31.93;41.05;98787.13;5014883;28;20022;-78
2021/07/15 07:00:16;;;;;;;1.80;1.30;;;;;;;31.70;41.57;98793.53;5014876;28;20040;-77
2021/07/15 07:02:44;;;;;;;0.20;0.20;;;;;;;31.42;41.60;98788.16;5014934;28;20026;-78
2021/07/15 07:05:11;;;;;;;2.10;0.75;;;;;;;31.32;41.48;98785.59;5015101;28;20096;-80
2021/07/15 07:07:37;;;;;;;0.57;0.57;;;;;;;31.17;40.97;98783.09;5014932;28;20517;-77
2021/07/15 07:10:05;;;;;;;0.55;0.43;;;;;;;31.03;41.14;98783.31;5013711;28;20025;-78
2021/07/15 07:12:31;;;;;;;0.82;0.68;;;;;;;30.94;41.41;98792.16;5013561;28;20107;-77
2021/07/15 07:14:56;;;;;;;0.38;0.38;;;;;;;30.93;40.39;98785.84;5013193;28;20493;-77
2021/07/15 07:17:22;;;;;;;0.63;0.60;;;;;;;30.97;42.28;98780.28;5015173;28;20032;-77
2021/07/15 07:19:47;;;;;;;0.65;0.60;;;;;;;30.91;41.97;98774.44;5014658;28;20470;-78
2021/07/15 07:22:13;;;;;;;0.35;0.35;;;;;;;30.87;40.78;98775.69;5013214;28;20390;-80
2021/07/15 07:24:38;;;;;;;0.55;0.55;;;;;;;30.81;39.24;98781.72;5012728;28;20057;-79
2021/07/15 07:27:04;;;;;;;0.98;0.60;;;;;;;30.75;39.63;98777.06;5013469;28;20022;-79
2021/07/15 07:29:29;;;;;;;0.20;0.20;;;;;;;30.72;40.72;98775.16;5014517;28;20448;-79
2021/07/15 07:31:55;;;;;;;0.30;0.30;;;;;;;30.69;41.28;98773.22;5014190;28;20084;-77
2021/07/15 07:34:20;;;;;;;1.65;1.55;;;;;;;30.59;41.06;98772.22;5014531;28;20115;-80
2021/07/15 07:36:46;;;;;;;0.45;0.45;;;;;;;30.48;41.57;98769.59;5045851;28;20026;-80
2021/07/15 07:39:11;;;;;;;0.10;0.10;;;;;;;30.31;41.82;98769.47;5014101;28;20033;-78
2021/07/15 07:41:37;;;;;;;0.20;0.10;;;;;;;30.17;40.42;98764.91;5013939;28;20056;-77
2021/07/15 07:44:03;;;;;;;0.15;0.15;;;;;;;30.07;40.05;98768.63;5014279;28;20034;-77
2021/07/15 07:46:28;;;;;;;0.00;0.00;;;;;;;30.00;39.90;98772.28;5014598;28;20021;-78
2021/07/15 07:48:53;;;;;;;0.20;0.20;;;;;;;30.02;41.04;98769.84;5013472;28;20080;-78
2021/07/15 07:51:19;;;;;;;0.20;0.20;;;;;;;30.02;39.96;98774.59;5013880;28;20026;-79
2021/07/15 07:53:45;;;;;;;0.10;0.10;;;;;;;30.01;40.49;98768.28;5012286;28;20402;-78
2021/07/15 07:56:11;;;;;;;0.28;0.28;;;;;;;30.09;40.76;98770.94;5014067;28;20478;-78
2021/07/15 07:58:36;;;;;;;0.40;0.40;;;;;;;30.18;40.64;98771.22;5013802;28;20058;-79
2021/07/15 08:01:03;;;;;;;0.13;0.13;;;;;;;30.14;40.39;98765.00;5014021;28;20068;-78
2021/07/15 08:03:29;;;;;;;0.13;0.13;;;;;;;30.14;40.11;98765.00;5045969;28;20057;-78
2021/07/15 08:05:55;;;;;;;0.95;0.68;;;;;;;30.12;39.72;98762.63;5012390;28;20030;-78
2021/07/15 08:08:22;;;;;;;0.17;0.17;;;;;;;30.11;40.57;98763.81;5012666;28;20030;-78
2021/07/15 08:10:47;;;;;;;0.08;0.08;;;;;;;30.11;39.82;98758.31;5013508;28;20030;-78
2021/07/15 08:13:13;;;;;;;0.20;0.20;;;;;;;30.12;39.49;98757.13;5013599;28;20026;-78
2021/07/15 08:15:38;;;;;;;0.13;0.13;;;;;;;30.11;39.68;98752.03;5012217;28;20211;-79
2021/07/15 08:18:04;;;;;;;0.10;0.10;;;;;;;30.12;39.24;98757.13;5013332;28;20026;-78
2021/07/15 08:20:30;;;;;;;0.28;0.28;;;;;;;30.13;40.49;98747.66;5013300;28;20481;-78
2021/07/15 08:22:55;;;;;;;0.10;0.10;;;;;;;30.14;40.29;98748.44;5013420;28;20025;-78
2021/07/15 08:25:22;;;;;;;0.10;0.10;;;;;;;30.14;38.40;98754.72;5012261;28;20061;-78
2021/07/15 08:27:48;;;;;;;0.00;0.00;;;;;;;30.08;39.31;98748.13;5013309;28;20481;-77
2021/07/15 08:30:15;;;;;;;0.80;0.73;;;;;;;30.11;39.08;98744.53;5013300;28;20041;-77
2021/07/15 08:32:41;;;;;;;0.38;0.38;;;;;;;30.13;38.26;98739.38;5012794;28;20026;-78
2021/07/15 08:35:07;;;;;;;0.20;0.20;;;;;;;30.17;37.93;98736.56;5013301;28;20048;-78
2021/07/15 08:37:33;;;;;;;0.38;0.38;;;;;;;30.27;38.38;98732.09;5013377;28;20037;-77
2021/07/15 08:39:59;;;;;;;0.30;0.30;;;;;;;30.37;38.36;98731.16;5011978;28;20025;-77
2021/07/15 08:42:26;;;;;;;0.10;0.10;;;;;;;30.43;38.00;98723.97;5013213;28;20061;-78
2021/07/15 08:44:53;;;;;;;0.35;0.35;;;;;;;30.55;37.83;98728.13;5012820;28;20026;-79
2021/07/15 08:47:19;;;;;;;0.17;0.17;;;;;;;30.60;36.94;98727.66;5011731;28;20040;-78
2021/07/15 08:49:44;;;;;;;0.35;0.35;;;;;;;30.70;36.85;98725.13;5012373;28;20034;-77
2021/07/15 08:52:14;;;;;;;0.15;0.15;;;;;;;30.80;37.01;98722.19;5012696;28;20026;-77
2021/07/15 08:57:21;;;;;;;0.30;0.30;;;;;;;30.83;35.57;98720.53;5012838;28;20447;-77
2021/07/15 08:59:47;;;;;;;0.10;0.10;;;;;;;30.78;35.43;98719.03;5012083;28;20103;-79
2021/07/15 09:02:18;;;;;;;0.20;0.10;;;;;;;30.78;35.96;98721.81;5011200;28;20026;-77
2021/07/15 09:04:43;;;;;;;0.38;0.38;;;;;;;30.74;36.18;98717.56;5012093;28;20029;-77
2021/07/15 09:07:09;;;;;;;0.08;0.08;;;;;;;30.75;35.10;98728.19;5012669;28;20033;-78
2021/07/15 09:09:35;;;;;;;0.00;0.00;;;;;;;30.73;34.80;98714.00;5011135;28;20037;-78
2021/07/15 09:12:01;;;;;;;1.75;0.55;;;;;;;30.72;35.01;98723.50;5012139;28;20486;-78
2021/07/15 09:14:26;;;;;;;0.40;0.40;;;;;;;30.72;34.79;98709.69;5012591;28;20022;-79
2021/07/15 09:16:58;;;;;;;0.77;0.77;;;;;;;30.76;34.85;98712.38;5010842;28;20030;-78
2021/07/15 09:19:25;;;;;;;0.30;0.30;;;;;;;30.86;35.08;98708.69;5012468;28;20025;-78
2021/07/15 09:21:52;;;;;;;0.00;0.00;;;;;;;30.94;34.72;98709.31;5011958;28;20508;-78
2021/07/15 09:24:53;;;;;;;0.00;0.00;;;;;;;31.09;34.61;98707.09;5012287;28;20056;-78
2021/07/15 09:27:24;;;;;;;0.32;0.32;;;;;;;31.07;33.85;98706.72;4989822;28;20549;-79
2021/07/15 09:30:12;;;;;;;0.00;0.00;;;;;;;31.11;34.18;98704.69;5003684;28;20136;-79
2021/07/15 09:32:55;;;;;;;0.10;0.10;;;;;;;31.13;34.19;98699.53;5010889;28;20080;-78
2021/07/15 09:35:31;;;;;;;0.50;0.50;;;;;;;31.16;34.98;98695.13;5010845;28;20034;-78
2021/07/15 09:38:18;;;;;;;1.53;0.43;;;;;;;31.18;34.76;98682.44;5011798;28;20485;-78
2021/07/15 09:40:46;;;;;;;0.23;0.23;;;;;;;31.27;34.05;98684.63;5011757;28;20040;-78
2021/07/15 09:43:19;;;;;;;0.20;0.20;;;;;;;31.31;34.06;98682.59;5011130;28;20049;-79
2021/07/15 09:45:48;;;;;;;0.30;0.22;;;;;;;31.40;34.21;98668.22;5011733;28;20037;-78
2021/07/15 09:48:18;;;;;;;0.15;0.15;;;;;;;31.53;33.92;98673.84;5011814;28;20029;-79
2021/07/15 09:50:45;;;;;;;0.90;0.90;;;;;;;31.57;33.83;98671.78;5010193;28;20029;-78
2021/07/15 09:53:33;;;;;;;0.20;0.20;;;;;;;31.59;33.80;98661.88;5011758;28;20057;-77
2021/07/15 09:55:58;;;;;;;0.00;0.00;;;;;;;31.66;34.11;98668.47;5011906;28;20140;-78
2021/07/15 09:58:24;;;;;;;1.17;0.20;;;;;;;31.75;34.69;98666.66;5011942;28;20544;-78
2021/07/15 10:00:49;;;;;;;1.42;0.63;;;;;;;31.85;34.96;98664.88;5011582;28;20029;-78
2021/07/15 10:03:17;;;;;;;0.10;0.10;;;;;;;31.94;34.51;98667.03;5012187;28;20033;-78
2021/07/15 10:05:49;;;;;;;0.00;0.00;;;;;;;32.01;34.38;98666.88;5011413;28;20026;-78
2021/07/15 10:08:25;;;;;;;0.32;0.30;;;;;;;32.07;32.77;98669.91;5011509;28;20026;-79
2021/07/15 10:10:51;;;;;;;0.50;0.50;;;;;;;32.02;32.61;98660.13;5010177;28;20407;-77
2021/07/15 10:13:22;;;;;;;5.57;0.35;;;;;;;32.05;31.80;98664.78;5011712;28;20108;-78
2021/07/15 10:15:49;;;;;;;0.13;0.13;;;;;;;32.05;31.53;98658.50;5010038;28;20034;-77
2021/07/15 10:18:34;;;;;;;1.83;0.50;;;;;;;32.04;31.58;98654.16;5011692;28;20022;-77
2021/07/15 10:20:59;;;;;;;0.40;0.40;;;;;;;32.03;31.79;98652.59;5011777;28;20041;-79
2021/07/15 10:23:37;;;;;;;0.15;0.15;;;;;;;31.97;31.91;98648.81;5010343;28;20080;-78
2021/07/15 10:26:04;;;;;;;0.17;0.17;;;;;;;31.95;32.53;98654.00;5009830;28;20084;-78
2021/07/15 10:28:30;;;;;;;0.00;0.00;;;;;;;31.95;32.29;98652.00;5011641;28;20055;-78
2021/07/15 10:31:01;;;;;;;0.57;0.43;;;;;;;32.02;32.60;98646.31;5010949;28;20037;-77
2021/07/15 10:33:29;;;;;;;0.40;0.30;;;;;;;32.05;33.06;98630.84;5011435;28;20030;-78
2021/07/15 10:35:55;;;;;;;0.10;0.10;;;;;;;32.18;33.55;98633.69;5011506;28;20548;-78
2021/07/15 10:38:22;;;;;;;0.00;0.00;;;;;;;32.28;33.22;98624.34;5011017;28;20516;-78
2021/07/15 10:40:49;;;;;;;0.10;0.10;;;;;;;32.36;32.55;98625.75;5011210;28;20041;-79
2021/07/15 10:43:15;;;;;;;0.47;0.47;;;;;;;32.39;31.53;98640.69;5010151;28;20026;-77
2021/07/15 10:45:40;;;;;;;0.30;0.30;;;;;;;32.32;31.46;98638.88;5011471;28;20112;-77
2021/07/15 10:48:06;;;;;;;0.60;0.45;;;;;;;32.21;31.94;98641.13;5009910;28;20029;-79
2021/07/15 10:50:32;;;;;;;1.08;0.77;;;;;;;32.19;32.20;98626.91;5009913;28;20033;-78
2021/07/15 10:52:58;;;;;;;1.00;1.00;;;;;;;32.16;32.35;98633.34;5010288;28;20117;-79
2021/07/15 10:55:25;;;;;;;0.17;0.17;;;;;;;32.18;32.74;98619.84;5010949;28;20108;-78
2021/07/15 10:57:51;;;;;;;0.10;0.10;;;;;;;32.29;33.17;98625.13;5011266;28;20092;-78
2021/07/15 11:00:24;;;;;;;0.17;0.17;;;;;;;32.35;31.52;98620.66;5011441;28;20261;-78
2021/07/15 11:03:09;;;;;;;0.55;0.55;;;;;;;32.43;30.85;98624.00;5011119;28;20038;-79
2021/07/15 11:05:54;;;;;;;1.40;0.32;;;;;;;32.48;29.88;98627.03;5009933;28;20421;-77
2021/07/15 11:08:39;;;;;;;0.00;0.00;;;;;;;32.56;29.70;98619.28;5011675;28;20030;-77
2021/07/15 11:11:05;;;;;;;0.15;0.15;;;;;;;32.60;29.69;98633.03;5009809;28;20116;-78
2021/07/15 11:13:33;;;;;;;0.10;0.10;;;;;;;32.53;29.38;98623.72;5011866;28;20113;-78
2021/07/15 11:15:58;;;;;;;0.47;0.47;;;;;;;32.54;30.00;98614.22;5010856;28;20112;-78
2021/07/15 11:21:26;;;;;;;0.28;0.28;;;;;;;32.49;29.49;98613.94;5010956;28;20092;-78
2021/07/15 11:24:21;;;;;;;0.20;0.20;;;;;;;32.52;29.26;98613.84;5011291;28;20018;-79
2021/07/15 11:26:47;;;;;;;0.10;0.10;;;;;;;32.57;29.12;98612.56;5003742;28;20485;-78
2021/07/15 11:29:13;;;;;;;0.00;0.00;;;;;;;32.65;29.57;98607.59;5014228;28;20032;-78
2021/07/15 11:31:42;;;;;;;0.30;0.30;;;;;;;32.72;29.40;98594.31;5014398;28;20036;-77
2021/07/15 11:34:09;;;;;;;0.00;0.00;;;;;;;32.83;29.66;98599.59;5014285;28;20112;-77
2021/07/15 11:36:35;;;;;;;0.98;0.20;;;;;;;32.92;29.62;98579.56;5014112;28;20022;-77
2021/07/15 11:39:04;;;;;;;0.22;0.22;;;;;;;33.02;28.96;98577.69;5014212;28;20117;-78
2021/07/15 11:41:49;;;;;;;0.22;0.22;;;;;;;33.12;28.73;98584.16;5014238;28;20038;-77
2021/07/15 11:44:17;;;;;;;0.00;0.00;;;;;;;33.20;29.43;98577.97;5014223;28;20108;-77